Virgo Phoenix — 3FMO8 — position and weather

sailwx.info

Track history (hours):
 
Tides and Currents Weather Stations Pressure Air Temp Water Temp Dewpoint Dewpoint Depression Visibility Wind Speed Wind Dir Waves Ship Positions

Virgo Phoenix

Last reported at 2016-Dec-04 07:32 UTC. Time now 2016-Dec-04 08:14 UTC.
Position N 31°24' E 121°33'.

Length 96 m; draft 6.2 m.

Type: Ship (hazmat cat C). MMSI: 370795000.

Date/timePositionNaut miles runAvg speedWind from/ knotsBaromVisibWave heightAir tempDewpointWater temp
2016-Dec-04 07:32N 31°24' E 121°33'10 8.7
2016-Dec-04 06:23N 31°19' E 121°43'  
2016-Dec-01 06:17N 34°21' E 134°60'1114.6
2016-Dec-01 05:32N 34°31' E 135°06'9 2.1
2016-Dec-01 01:22N 34°39' E 135°09'0 0.0
2016-Dec-01 00:16N 34°39' E 135°09'0 0.7
2016-Nov-30 23:33N 34°38' E 135°10'0 0.1
2016-Nov-30 22:31N 34°38' E 135°10'0 0.0
2016-Nov-30 21:31N 34°38' E 135°10'0 0.0
2016-Nov-30 20:31N 34°38' E 135°10'0 0.0
2016-Nov-30 19:31N 34°38' E 135°10'0 0.0
2016-Nov-30 18:25N 34°38' E 135°10'0 0.0
2016-Nov-30 17:31N 34°38' E 135°10'0 0.0
2016-Nov-30 16:31N 34°38' E 135°10'0 0.0
2016-Nov-30 15:25N 34°38' E 135°10'0 0.0
2016-Nov-30 14:31N 34°38' E 135°10'0 0.0
2016-Nov-30 13:31N 34°38' E 135°10'0 0.0
2016-Nov-30 12:31N 34°38' E 135°10'0 0.0
2016-Nov-30 11:25N 34°38' E 135°10'0 0.0
2016-Nov-30 10:19N 34°38' E 135°10'7 9.2
2016-Nov-30 09:33N 34°32' E 135°07'1813.1
2016-Nov-30 08:11N 34°14' E 135°01'913.8
2016-Nov-30 07:33N 34°09' E 135°09'2 0.3
2016-Nov-29 22:34N 34°09' E 135°12'7 6.6
2016-Nov-29 21:33N 34°07' E 135°04'  
2016-Nov-27 11:04N 31°20' E 121°40'611.9
2016-Nov-27 10:33N 31°24' E 121°34'1010.2
2016-Nov-27 09:33N 31°30' E 121°25'1312.0
2016-Nov-27 08:30N 31°39' E 121°14'1313.6
2016-Nov-27 07:33N 31°46' E 121°02'3411.3
2016-Nov-27 04:32N 32°02' E 120°26'1413.9
2016-Nov-27 03:33N 31°56' E 120°11'13 0.5
2016-Nov-26 03:32N 31°58' E 120°26'1 0.1
2016-Nov-25 17:09N 31°58' E 120°27'0 0.0
2016-Nov-25 16:32N 31°58' E 120°27'0 0.0
2016-Nov-25 13:32N 31°58' E 120°27'0 0.0
2016-Nov-25 07:26N 31°58' E 120°27'2 2.8
2016-Nov-25 06:33N 32°01' E 120°27'3310.9
2016-Nov-25 03:33N 31°47' E 121°01'21 1.6
2016-Nov-24 14:21N 31°34' E 121°21'8 8.7
2016-Nov-24 13:24N 31°28' E 121°28'8 9.7
2016-Nov-24 12:33N 31°23' E 121°35'1010.1
2016-Nov-24 11:31N 31°17' E 121°45'  
Track history (hours):
 
Tides and Currents Weather Stations Pressure Air Temp Water Temp Dewpoint Dewpoint Depression Visibility Wind Speed Wind Dir Waves Ship Positions

Virgo Phoenix

Last reported at 2016-Dec-04 07:32 UTC. Time now 2016-Dec-04 08:14 UTC.
Position N 31°24' E 121°33'.

Length 96 m; draft 6.2 m.

Type: Ship (hazmat cat C). MMSI: 370795000.

Date/timePositionNaut miles runAvg speedWind from/ knotsBaromVisibWave heightAir tempDewpointWater temp
2016-Dec-04 07:32N 31°24' E 121°33'10 8.7
2016-Dec-04 06:23N 31°19' E 121°43'  
2016-Dec-01 06:17N 34°21' E 134°60'1114.6
2016-Dec-01 05:32N 34°31' E 135°06'9 2.1
2016-Dec-01 01:22N 34°39' E 135°09'0 0.0
2016-Dec-01 00:16N 34°39' E 135°09'0 0.7
2016-Nov-30 23:33N 34°38' E 135°10'0 0.1
2016-Nov-30 22:31N 34°38' E 135°10'0 0.0
2016-Nov-30 21:31N 34°38' E 135°10'0 0.0
2016-Nov-30 20:31N 34°38' E 135°10'0 0.0
2016-Nov-30 19:31N 34°38' E 135°10'0 0.0
2016-Nov-30 18:25N 34°38' E 135°10'0 0.0
2016-Nov-30 17:31N 34°38' E 135°10'0 0.0
2016-Nov-30 16:31N 34°38' E 135°10'0 0.0
2016-Nov-30 15:25N 34°38' E 135°10'0 0.0
2016-Nov-30 14:31N 34°38' E 135°10'0 0.0
2016-Nov-30 13:31N 34°38' E 135°10'0 0.0
2016-Nov-30 12:31N 34°38' E 135°10'0 0.0
2016-Nov-30 11:25N 34°38' E 135°10'0 0.0
2016-Nov-30 10:19N 34°38' E 135°10'7 9.2
2016-Nov-30 09:33N 34°32' E 135°07'1813.1
2016-Nov-30 08:11N 34°14' E 135°01'913.8
2016-Nov-30 07:33N 34°09' E 135°09'2 0.3
2016-Nov-29 22:34N 34°09' E 135°12'7 6.6
2016-Nov-29 21:33N 34°07' E 135°04'  
2016-Nov-27 11:04N 31°20' E 121°40'611.9
2016-Nov-27 10:33N 31°24' E 121°34'1010.2
2016-Nov-27 09:33N 31°30' E 121°25'1312.0
2016-Nov-27 08:30N 31°39' E 121°14'1313.6
2016-Nov-27 07:33N 31°46' E 121°02'3411.3
2016-Nov-27 04:32N 32°02' E 120°26'1413.9
2016-Nov-27 03:33N 31°56' E 120°11'13 0.5
2016-Nov-26 03:32N 31°58' E 120°26'1 0.1
2016-Nov-25 17:09N 31°58' E 120°27'0 0.0
2016-Nov-25 16:32N 31°58' E 120°27'0 0.0
2016-Nov-25 13:32N 31°58' E 120°27'0 0.0
2016-Nov-25 07:26N 31°58' E 120°27'2 2.8
2016-Nov-25 06:33N 32°01' E 120°27'3310.9
2016-Nov-25 03:33N 31°47' E 121°01'21 1.6
2016-Nov-24 14:21N 31°34' E 121°21'8 8.7
2016-Nov-24 13:24N 31°28' E 121°28'8 9.7
2016-Nov-24 12:33N 31°23' E 121°35'1010.1
2016-Nov-24 11:31N 31°17' E 121°45'  

Dump ship's entire track history